createdAt,value
2019-03-12T00:01:18.251Z,6.10
2019-03-12T00:03:48.196Z,6.10
2019-03-12T00:06:17.697Z,6.10
2019-03-12T00:08:47.403Z,6.20
2019-03-12T00:11:16.951Z,6.20
2019-03-12T00:13:46.587Z,6.20
2019-03-12T00:16:16.087Z,6.30
2019-03-12T00:18:45.836Z,6.30
2019-03-12T00:21:15.398Z,6.30
2019-03-12T00:23:45.240Z,6.40
2019-03-12T00:26:14.962Z,6.40
2019-03-12T00:28:44.766Z,6.40
2019-03-12T00:31:14.324Z,6.50
2019-03-12T00:33:44.240Z,6.40
2019-03-12T00:36:13.765Z,6.50
2019-03-12T00:38:43.359Z,6.50
2019-03-12T00:41:12.871Z,6.50
2019-03-12T00:43:42.461Z,6.50
2019-03-12T00:46:12.224Z,6.50
2019-03-12T00:48:41.747Z,6.50
2019-03-12T00:51:11.245Z,6.50
2019-03-12T00:53:40.782Z,6.50
2019-03-12T00:56:10.253Z,6.60
2019-03-12T00:58:39.801Z,6.50
2019-03-12T01:01:09.440Z,6.50
2019-03-12T01:03:38.966Z,6.50
2019-03-12T01:06:08.434Z,6.50
2019-03-12T01:08:38.069Z,6.60
2019-03-12T01:11:07.637Z,6.60
2019-03-12T01:13:37.213Z,6.70
2019-03-12T01:16:07.127Z,6.70
2019-03-12T01:18:36.719Z,6.70
2019-03-12T01:21:06.411Z,6.70
2019-03-12T01:23:36.046Z,6.70
2019-03-12T01:26:05.638Z,6.70
2019-03-12T01:28:35.149Z,6.70
2019-03-12T01:31:04.755Z,6.70
2019-03-12T01:33:34.400Z,6.70
2019-03-12T01:36:04.232Z,6.70
2019-03-12T01:38:33.697Z,6.70
2019-03-12T01:41:03.307Z,6.60
2019-03-12T01:43:33.361Z,6.60
2019-03-12T01:46:03.061Z,6.60
2019-03-12T01:48:32.773Z,6.60
2019-03-12T01:51:02.755Z,6.50
2019-03-12T01:53:32.222Z,6.50
2019-03-12T01:56:01.714Z,6.50
2019-03-12T01:58:31.421Z,6.50
2019-03-12T02:01:01.057Z,6.50
2019-03-12T02:03:30.647Z,6.50
2019-03-12T02:06:03.034Z,6.50
2019-03-12T02:08:32.686Z,6.50
2019-03-12T02:11:02.293Z,6.50
2019-03-12T02:13:31.955Z,6.50
2019-03-12T02:16:01.478Z,6.50
2019-03-12T02:18:31.113Z,6.60
2019-03-12T02:21:01.520Z,6.60
2019-03-12T02:23:31.157Z,6.60
2019-03-12T02:26:01.112Z,6.60
2019-03-12T02:28:30.592Z,6.60
2019-03-12T02:31:00.327Z,6.60
2019-03-12T02:33:29.918Z,6.60
2019-03-12T02:35:59.470Z,6.70
2019-03-12T02:38:29.062Z,6.60
2019-03-12T02:40:58.584Z,6.60
2019-03-12T02:43:28.170Z,6.70
2019-03-12T02:45:57.800Z,6.60
2019-03-12T02:48:27.424Z,6.70
2019-03-12T02:50:56.929Z,6.70
2019-03-12T02:53:27.690Z,6.70
2019-03-12T02:56:01.625Z,6.70
2019-03-12T02:58:29.612Z,6.60
2019-03-12T03:00:59.374Z,6.70
2019-03-12T03:03:29.127Z,6.60
2019-03-12T03:06:15.811Z,6.70
2019-03-12T03:08:45.904Z,6.60
2019-03-12T03:11:15.431Z,6.70
2019-03-12T03:13:45.001Z,6.70
2019-03-12T03:16:14.511Z,6.70
2019-03-12T03:18:44.050Z,6.70
2019-03-12T03:21:13.660Z,6.70
2019-03-12T03:23:43.329Z,6.70
2019-03-12T03:26:12.985Z,6.70
2019-03-12T03:28:42.655Z,6.70
2019-03-12T03:31:12.202Z,6.70
2019-03-12T03:33:41.825Z,6.80
2019-03-12T03:36:11.496Z,6.70
2019-03-12T03:38:40.998Z,6.70
2019-03-12T03:41:10.733Z,6.70
2019-03-12T03:43:40.512Z,6.80
2019-03-12T03:46:10.247Z,6.80
2019-03-12T03:48:39.789Z,6.80
2019-03-12T03:51:09.341Z,6.80
2019-03-12T03:53:38.917Z,6.80
2019-03-12T03:56:08.476Z,6.90
2019-03-12T03:58:38.082Z,6.80
2019-03-12T04:01:07.869Z,6.80
2019-03-12T04:03:37.475Z,6.90
2019-03-12T04:06:07.349Z,6.90
2019-03-12T04:08:37.333Z,6.90
2019-03-12T04:11:07.169Z,6.90
2019-03-12T04:13:36.854Z,6.90
2019-03-12T04:16:06.743Z,7.00
2019-03-12T04:18:36.270Z,6.90
2019-03-12T04:21:05.881Z,6.90
2019-03-12T04:23:35.384Z,7.00
2019-03-12T04:26:07.675Z,7.00
2019-03-12T04:28:37.512Z,7.00
2019-03-12T04:31:06.988Z,7.00
2019-03-12T04:34:13.176Z,7.00
2019-03-12T04:36:42.887Z,7.00
2019-03-12T04:39:12.454Z,7.00
2019-03-12T04:41:42.142Z,7.00
2019-03-12T04:44:11.720Z,7.00
2019-03-12T04:46:41.327Z,7.00
2019-03-12T04:49:11.250Z,7.00
2019-03-12T04:51:41.054Z,7.00
2019-03-12T04:54:10.921Z,7.00
2019-03-12T04:56:40.476Z,7.00
2019-03-12T04:59:10.215Z,7.00
2019-03-12T05:01:39.908Z,7.10
2019-03-12T05:04:09.668Z,7.10
2019-03-12T05:06:39.381Z,7.00
2019-03-12T05:09:09.559Z,7.00
2019-03-12T05:11:39.130Z,7.00
2019-03-12T05:14:28.850Z,7.00
2019-03-12T05:17:10.266Z,7.00
2019-03-12T05:19:42.496Z,7.00
2019-03-12T05:22:12.113Z,7.00
2019-03-12T05:24:41.757Z,7.10
2019-03-12T05:27:11.391Z,7.10
2019-03-12T05:29:41.667Z,7.10
2019-03-12T05:32:11.288Z,7.10
2019-03-12T05:34:40.953Z,7.10
2019-03-12T05:37:10.606Z,7.00
2019-03-12T05:39:40.475Z,7.00
2019-03-12T05:42:10.463Z,7.00
2019-03-12T05:44:40.081Z,7.00
2019-03-12T05:47:09.753Z,7.10
2019-03-12T05:49:40.171Z,7.10
2019-03-12T05:52:09.817Z,7.10
2019-03-12T05:54:39.369Z,7.10
2019-03-12T05:57:09.051Z,7.20
2019-03-12T05:59:38.698Z,7.20
2019-03-12T06:02:08.286Z,7.10
2019-03-12T06:04:38.066Z,7.10
2019-03-12T06:07:07.716Z,7.20
2019-03-12T06:09:37.370Z,7.20
2019-03-12T06:12:07.187Z,7.30
2019-03-12T06:14:38.609Z,7.30
2019-03-12T06:17:08.300Z,7.30
2019-03-12T06:19:37.856Z,7.30
2019-03-12T06:22:07.698Z,7.30
2019-03-12T06:24:37.309Z,7.30
2019-03-12T06:27:07.136Z,7.40
2019-03-12T06:29:36.619Z,7.40
2019-03-12T06:32:25.725Z,7.40
2019-03-12T06:35:03.395Z,7.40
2019-03-12T06:38:06.940Z,7.40
2019-03-12T06:40:53.887Z,7.40
2019-03-12T06:43:28.450Z,7.40
2019-03-12T06:46:21.244Z,7.40
2019-03-12T06:49:08.111Z,7.40
2019-03-12T06:52:05.027Z,7.40
2019-03-12T06:55:04.374Z,7.40
2019-03-12T06:57:57.023Z,7.50
2019-03-12T07:00:36.244Z,7.50
2019-03-12T07:03:15.672Z,7.50
2019-03-12T07:05:56.324Z,7.50
2019-03-12T07:08:47.896Z,7.60
2019-03-12T07:11:37.607Z,7.60
2019-03-12T07:14:26.454Z,7.70
2019-03-12T07:16:59.939Z,7.70
2019-03-12T07:20:00.514Z,7.70
2019-03-12T07:22:42.635Z,7.70
2019-03-12T07:25:34.531Z,7.70
2019-03-12T07:28:20.490Z,7.70
2019-03-12T07:30:59.700Z,7.80
2019-03-12T07:33:48.470Z,7.80
2019-03-12T07:36:42.911Z,7.80
2019-03-12T07:39:49.898Z,7.90
2019-03-12T07:42:38.510Z,7.90
2019-03-12T07:45:42.680Z,8.00
2019-03-12T07:48:34.054Z,8.00
2019-03-12T07:51:28.442Z,8.10
2019-03-12T07:54:20.252Z,8.10
2019-03-12T07:57:11.755Z,8.10
2019-03-12T07:59:49.010Z,8.10
2019-03-12T08:02:36.084Z,8.10
2019-03-12T08:05:42.628Z,8.20
2019-03-12T08:08:33.966Z,8.30
2019-03-12T08:11:23.642Z,8.30
2019-03-12T08:14:11.000Z,8.40
2019-03-12T08:16:50.810Z,8.30
2019-03-12T08:19:45.151Z,8.30
2019-03-12T08:22:45.761Z,8.30
2019-03-12T08:25:33.370Z,8.30
2019-03-12T08:28:22.160Z,8.40
2019-03-12T08:31:10.935Z,8.40
2019-03-12T08:33:55.566Z,8.30
2019-03-12T08:36:35.044Z,8.40
2019-03-12T08:39:17.530Z,8.30
2019-03-12T08:41:57.460Z,8.30
2019-03-12T08:44:48.905Z,8.30
2019-03-12T08:47:29.017Z,8.30
2019-03-12T08:50:18.983Z,8.30
2019-03-12T08:52:54.476Z,8.40
2019-03-12T08:55:39.145Z,8.40
2019-03-12T08:58:19.116Z,8.50
2019-03-12T09:01:05.009Z,8.40
2019-03-12T09:03:51.942Z,8.50
2019-03-12T09:06:34.873Z,8.60
2019-03-12T09:09:37.552Z,8.60
2019-03-12T09:12:17.565Z,8.50
2019-03-12T09:15:05.482Z,8.60
2019-03-12T09:18:12.287Z,8.60
2019-03-12T09:20:55.236Z,8.60
2019-03-12T09:23:45.618Z,8.70
2019-03-12T09:26:28.176Z,8.70
2019-03-12T09:29:16.077Z,8.70
2019-03-12T09:32:04.915Z,8.70
2019-03-12T09:34:48.431Z,8.70
2019-03-12T09:37:43.366Z,8.70
2019-03-12T09:40:38.848Z,8.70
2019-03-12T09:43:21.239Z,8.80
2019-03-12T09:45:58.177Z,8.90
2019-03-12T09:48:46.919Z,8.90
2019-03-12T09:51:35.515Z,8.90
2019-03-12T09:54:22.572Z,8.90
2019-03-12T09:57:08.525Z,9.10
2019-03-12T09:59:54.267Z,9.10
2019-03-12T10:02:45.253Z,9.20
2019-03-12T10:05:25.282Z,9.30
2019-03-12T10:08:20.126Z,9.40
2019-03-12T10:11:01.301Z,9.50
2019-03-12T10:13:56.082Z,9.40
2019-03-12T10:16:47.810Z,9.40
2019-03-12T10:19:35.049Z,9.50
2019-03-12T10:22:22.441Z,9.50
2019-03-12T10:25:09.844Z,9.60
2019-03-12T10:27:58.486Z,9.60
2019-03-12T10:30:56.112Z,9.60
2019-03-12T10:33:53.904Z,9.60
2019-03-12T10:36:42.515Z,9.60
2019-03-12T10:40:18.121Z,9.60
2019-03-12T10:43:18.008Z,9.70
2019-03-12T10:46:06.862Z,9.80
2019-03-12T10:48:37.347Z,10.00
2019-03-12T10:51:07.344Z,10.00
2019-03-12T10:53:37.150Z,9.90
2019-03-12T10:56:06.754Z,10.00
2019-03-12T10:58:36.656Z,10.00
2019-03-12T11:01:06.223Z,10.00
2019-03-12T11:03:36.110Z,10.10
2019-03-12T11:06:07.059Z,10.30
2019-03-12T11:08:37.920Z,10.60
2019-03-12T11:11:07.968Z,10.80
2019-03-12T11:13:37.847Z,11.10
2019-03-12T11:16:08.144Z,11.10
2019-03-12T11:18:38.057Z,11.20
2019-03-12T11:21:08.216Z,11.20
2019-03-12T11:23:38.112Z,11.30
2019-03-12T11:26:07.923Z,11.10
2019-03-12T11:28:37.583Z,11.10
2019-03-12T11:31:07.620Z,11.10
2019-03-12T11:33:38.006Z,11.00
2019-03-12T11:36:09.945Z,11.00
2019-03-12T11:38:41.062Z,11.00
2019-03-12T11:41:10.822Z,10.90
2019-03-12T11:43:40.574Z,10.80
2019-03-12T11:46:12.391Z,10.70
2019-03-12T11:48:43.114Z,10.60
2019-03-12T11:51:13.872Z,10.60
2019-03-12T11:53:43.756Z,10.70
2019-03-12T11:56:13.623Z,10.80
2019-03-12T11:58:43.423Z,10.80
2019-03-12T12:01:13.275Z,10.70
2019-03-12T12:03:43.341Z,10.60
2019-03-12T12:06:13.270Z,10.50
2019-03-12T12:08:44.346Z,10.60
2019-03-12T12:11:14.135Z,10.50
2019-03-12T12:13:44.069Z,10.50
2019-03-12T12:16:14.084Z,10.50
2019-03-12T12:18:43.526Z,10.50
2019-03-12T12:21:14.642Z,10.60
2019-03-12T12:23:44.117Z,10.60
2019-03-12T12:26:13.815Z,10.80
2019-03-12T12:28:43.743Z,11.10
2019-03-12T12:31:13.535Z,11.30
2019-03-12T12:33:43.388Z,11.30
2019-03-12T12:36:13.374Z,11.30
2019-03-12T12:38:43.422Z,11.40
2019-03-12T12:41:13.115Z,11.30
2019-03-12T12:43:42.851Z,11.20
2019-03-12T12:46:12.663Z,11.20
2019-03-12T12:48:42.487Z,11.20
2019-03-12T12:51:12.253Z,11.40
2019-03-12T12:53:41.898Z,11.70
2019-03-12T12:56:11.521Z,12.00
2019-03-12T12:58:41.557Z,12.30
2019-03-12T13:01:12.801Z,12.50
2019-03-12T13:03:42.724Z,12.70
2019-03-12T13:06:12.771Z,12.80
2019-03-12T13:08:42.961Z,12.70
2019-03-12T13:11:12.638Z,12.30
2019-03-12T13:13:42.570Z,12.10
2019-03-12T13:16:24.033Z,12.00
2019-03-12T13:18:43.733Z,11.70
2019-03-12T13:21:13.509Z,11.60
2019-03-12T13:23:44.138Z,11.50
2019-03-12T13:26:14.014Z,11.60
2019-03-12T13:28:45.037Z,11.50
2019-03-12T13:31:15.184Z,11.60
2019-03-12T13:33:45.352Z,11.70
2019-03-12T13:36:18.885Z,11.80
2019-03-12T13:38:48.910Z,11.90
2019-03-12T13:41:18.868Z,12.10
2019-03-12T13:43:48.594Z,12.70
2019-03-12T13:46:18.339Z,13.00
2019-03-12T13:48:48.096Z,13.00
2019-03-12T13:51:17.858Z,13.10
2019-03-12T13:53:47.471Z,13.70
2019-03-12T13:56:18.546Z,14.20
2019-03-12T13:58:48.288Z,14.40
2019-03-12T14:01:18.117Z,14.20
2019-03-12T14:03:48.147Z,13.80
2019-03-12T14:06:18.029Z,12.90
2019-03-12T14:08:48.586Z,12.50
2019-03-12T14:11:18.704Z,12.30
2019-03-12T14:13:48.385Z,12.30
2019-03-12T14:16:18.578Z,12.50
2019-03-12T14:18:48.490Z,12.60
2019-03-12T14:21:18.128Z,12.80
2019-03-12T14:24:08.437Z,12.80
2019-03-12T14:26:38.237Z,12.70
2019-03-12T14:29:08.144Z,12.40
2019-03-12T14:31:38.095Z,12.30
2019-03-12T14:34:08.260Z,12.30
2019-03-12T14:36:37.929Z,12.20
2019-03-12T14:39:08.870Z,12.10
2019-03-12T14:41:38.516Z,11.70
2019-03-12T14:44:08.270Z,11.40
2019-03-12T14:46:38.010Z,11.30
2019-03-12T14:49:10.638Z,11.20
2019-03-12T14:51:52.959Z,11.20
2019-03-12T14:54:23.001Z,11.10
2019-03-12T14:56:54.760Z,11.20
2019-03-12T14:59:24.879Z,11.20
2019-03-12T15:01:54.566Z,11.20
2019-03-12T15:04:24.304Z,11.20
2019-03-12T15:06:53.922Z,11.30
2019-03-12T15:09:23.764Z,11.20
2019-03-12T15:11:53.339Z,11.20
2019-03-12T15:14:23.026Z,11.20
2019-03-12T15:16:52.652Z,11.20
2019-03-12T15:19:22.385Z,11.10
2019-03-12T15:21:52.809Z,11.10
2019-03-12T15:24:22.699Z,11.00
2019-03-12T15:26:52.817Z,11.00
2019-03-12T15:29:22.518Z,11.00
2019-03-12T15:32:03.677Z,11.00
2019-03-12T15:34:23.342Z,11.00
2019-03-12T15:36:53.086Z,11.00
2019-03-12T15:39:22.879Z,11.00
2019-03-12T15:41:52.441Z,11.10
2019-03-12T15:44:22.316Z,11.00
2019-03-12T15:46:52.225Z,11.00
2019-03-12T15:49:22.237Z,11.00
2019-03-12T15:51:52.110Z,10.90
2019-03-12T15:54:21.551Z,10.90
2019-03-12T15:56:51.357Z,10.80
2019-03-12T15:59:21.297Z,10.60
2019-03-12T16:01:51.381Z,10.60
2019-03-12T16:04:20.990Z,10.40
2019-03-12T16:07:00.654Z,10.30
2019-03-12T16:09:22.123Z,10.20
2019-03-12T16:11:51.873Z,10.20
2019-03-12T16:14:21.642Z,10.20
2019-03-12T16:16:53.573Z,10.10
2019-03-12T16:19:23.582Z,10.00
2019-03-12T16:21:53.195Z,9.90
2019-03-12T16:24:22.883Z,9.80
2019-03-12T16:26:52.566Z,9.80
2019-03-12T16:29:22.570Z,9.70
2019-03-12T16:31:52.209Z,9.70
2019-03-12T16:34:22.667Z,9.60
2019-03-12T16:36:54.151Z,9.60
2019-03-12T16:39:23.910Z,9.60
2019-03-12T16:41:53.736Z,9.50
2019-03-12T16:44:26.218Z,9.50
2019-03-12T16:46:56.461Z,9.40
2019-03-12T16:49:26.699Z,9.40
2019-03-12T16:51:57.066Z,9.40
2019-03-12T16:54:27.739Z,9.30
2019-03-12T16:56:58.475Z,9.30
2019-03-12T16:59:29.463Z,9.30
2019-03-12T17:02:01.324Z,9.30
2019-03-12T17:04:31.179Z,9.30
2019-03-12T17:07:02.386Z,9.30
2019-03-12T17:09:35.710Z,9.30
2019-03-12T17:12:06.518Z,9.20
2019-03-12T17:14:39.022Z,9.20
2019-03-12T17:17:09.122Z,9.20
2019-03-12T17:19:39.105Z,9.20
2019-03-12T17:22:09.119Z,9.10
2019-03-12T17:24:39.371Z,9.10
2019-03-12T17:27:09.380Z,9.10
2019-03-12T17:29:39.376Z,9.00
2019-03-12T17:32:09.190Z,9.00
2019-03-12T17:34:39.054Z,9.00
2019-03-12T17:37:28.633Z,9.00
2019-03-12T17:40:04.510Z,9.00
2019-03-12T17:43:39.627Z,8.90
2019-03-12T17:46:12.746Z,8.90
2019-03-12T17:48:43.100Z,8.40
2019-03-12T17:51:13.109Z,7.60
2019-03-12T17:53:43.628Z,7.00
2019-03-12T17:56:13.417Z,6.60
2019-03-12T17:58:43.466Z,6.40
2019-03-12T18:01:14.100Z,6.30
2019-03-12T18:03:44.299Z,6.20
2019-03-12T18:06:14.391Z,6.10
2019-03-12T18:08:45.276Z,6.10
2019-03-12T18:11:15.696Z,6.10
2019-03-12T18:13:46.434Z,6.10
2019-03-12T18:16:17.665Z,6.10
2019-03-12T18:18:48.012Z,6.10
2019-03-12T18:21:17.900Z,6.10
2019-03-12T18:23:49.146Z,6.10
2019-03-12T18:26:19.240Z,6.10
2019-03-12T18:28:49.654Z,6.10
2019-03-12T18:31:19.879Z,6.00
2019-03-12T18:33:50.272Z,6.10
2019-03-12T18:36:22.736Z,6.10
2019-03-12T18:38:53.470Z,6.00
2019-03-12T18:41:25.745Z,6.00
2019-03-12T18:43:59.419Z,6.10
2019-03-12T18:46:31.007Z,6.00
2019-03-12T18:49:02.729Z,6.00
2019-03-12T18:51:33.178Z,6.00
2019-03-12T18:54:03.001Z,6.00
2019-03-12T18:56:33.781Z,6.00
2019-03-12T18:59:05.096Z,6.00
2019-03-12T19:01:36.272Z,6.00
2019-03-12T19:04:06.527Z,6.00
2019-03-12T19:06:37.896Z,6.00
2019-03-12T19:09:09.551Z,6.00
2019-03-12T19:11:40.541Z,6.00
2019-03-12T19:14:11.252Z,6.00
2019-03-12T19:16:42.062Z,6.00
2019-03-12T19:19:15.746Z,6.10
2019-03-12T19:21:46.274Z,6.10
2019-03-12T19:24:17.425Z,6.10
2019-03-12T19:26:48.267Z,6.10
2019-03-12T19:29:18.285Z,6.10
2019-03-12T19:32:13.717Z,6.10
2019-03-12T19:34:44.863Z,6.10
2019-03-12T19:37:15.302Z,6.10
2019-03-12T19:39:46.031Z,6.10
2019-03-12T19:42:16.660Z,6.10
2019-03-12T19:44:47.526Z,6.10
2019-03-12T19:47:18.384Z,6.10
2019-03-12T19:49:49.537Z,6.10
2019-03-12T19:52:20.096Z,6.10
2019-03-12T19:54:52.892Z,6.10
2019-03-12T19:57:23.055Z,6.00
2019-03-12T19:59:53.890Z,6.00
2019-03-12T20:02:24.173Z,5.90
2019-03-12T20:04:54.468Z,5.90
2019-03-12T20:07:24.669Z,5.90
2019-03-12T20:10:33.879Z,5.80
2019-03-12T20:13:59.622Z,5.80
2019-03-12T20:17:25.890Z,5.70
2019-03-12T20:20:39.188Z,5.70
2019-03-12T20:23:51.712Z,5.70
2019-03-12T20:26:57.326Z,5.60
2019-03-12T20:30:02.760Z,5.70
2019-03-12T20:33:22.580Z,5.70
2019-03-12T20:36:37.561Z,5.60
2019-03-12T20:39:55.862Z,5.60
2019-03-12T20:43:14.059Z,5.60
2019-03-12T20:46:29.611Z,5.60
2019-03-12T20:49:34.935Z,5.60
2019-03-12T20:52:43.840Z,5.50
2019-03-12T20:55:52.779Z,5.50
2019-03-12T20:59:14.331Z,5.50
2019-03-12T21:02:17.532Z,5.60
2019-03-12T21:05:14.006Z,5.50
2019-03-12T21:08:35.008Z,5.50
2019-03-12T21:11:57.433Z,5.50
2019-03-12T21:14:51.425Z,5.50
2019-03-12T21:18:05.885Z,5.50
2019-03-12T21:21:12.068Z,5.60
2019-03-12T21:24:34.630Z,5.50
2019-03-12T21:27:56.985Z,5.60
2019-03-12T21:30:29.498Z,5.60
2019-03-12T21:32:58.911Z,5.60
2019-03-12T21:35:28.410Z,5.60
2019-03-12T21:37:57.905Z,5.60
2019-03-12T21:40:27.721Z,5.60
2019-03-12T21:42:57.410Z,5.60
2019-03-12T21:45:27.035Z,5.60
2019-03-12T21:47:56.611Z,5.60
2019-03-12T21:50:26.513Z,5.60
2019-03-12T21:52:56.311Z,5.60
2019-03-12T21:55:25.895Z,5.70
2019-03-12T21:57:55.395Z,5.70
2019-03-12T22:00:25.547Z,5.70
2019-03-12T22:02:55.140Z,5.70
2019-03-12T22:05:24.624Z,5.70
2019-03-12T22:07:54.267Z,5.80
2019-03-12T22:10:23.790Z,5.70
2019-03-12T22:12:53.310Z,5.80
2019-03-12T22:15:23.056Z,5.80
2019-03-12T22:17:52.672Z,5.80
2019-03-12T22:20:22.179Z,5.80
2019-03-12T22:23:13.861Z,5.80
2019-03-12T22:25:43.419Z,5.80
2019-03-12T22:28:13.206Z,5.80
2019-03-12T22:30:42.687Z,5.80
2019-03-12T22:33:12.506Z,5.80
2019-03-12T22:35:42.188Z,5.90
2019-03-12T22:38:12.013Z,5.80
2019-03-12T22:40:41.722Z,5.90
2019-03-12T22:43:11.306Z,5.90
2019-03-12T22:45:41.081Z,5.90
2019-03-12T22:48:10.549Z,5.90
2019-03-12T22:50:41.625Z,5.90
2019-03-12T22:53:11.206Z,5.90
2019-03-12T22:55:40.729Z,5.90
2019-03-12T22:58:10.594Z,6.00
2019-03-12T23:00:41.871Z,6.00
2019-03-12T23:03:11.462Z,5.90
2019-03-12T23:05:41.213Z,6.00
2019-03-12T23:08:10.764Z,6.00
2019-03-12T23:10:40.337Z,6.00
2019-03-12T23:13:10.393Z,6.00
2019-03-12T23:15:40.019Z,6.10
2019-03-12T23:18:09.838Z,6.20
2019-03-12T23:20:39.367Z,6.20
2019-03-12T23:23:09.118Z,6.20
2019-03-12T23:25:38.607Z,6.30
2019-03-12T23:28:08.063Z,6.30
2019-03-12T23:30:37.534Z,6.30
2019-03-12T23:33:07.233Z,6.30
2019-03-12T23:35:36.825Z,6.30
2019-03-12T23:38:06.375Z,6.40
2019-03-12T23:40:35.912Z,6.40
2019-03-12T23:43:05.525Z,6.40
2019-03-12T23:45:35.107Z,6.30
2019-03-12T23:48:04.987Z,6.30
2019-03-12T23:50:34.679Z,6.30
2019-03-12T23:53:05.032Z,6.30
2019-03-12T23:55:34.687Z,6.30
2019-03-12T23:58:04.202Z,6.30
